Saint Lawrence, Pennsylvania
Current Conditions -  °F | °C
As of 2:54 PM on Sunday 23 Nov 2014 (Local Time) from KRDG Reporting Station
Clear Clear  
Wind Chill: 61°   Ceiling: Unl
Heat Index: 61°   Visibility: 10mi
Dew Point: 24°   Wind: 8mph
Humidity: 24%   Direction: 140°SE
Pressure: 30.08"   Gusts: NA
Location:  40.3351°N, 75.8521°W
Report Text: KRDG 231954Z AUTO 14007KT 10SM CLR 16/M04 A3008 RMK AO2 SLP193 T01611044
Loading
Personal Weather Stations






























Interactive Weather Map New forecast layout! Learn more

10-Day Weather Forecast

Advertisements
Track Severe Weather on mobile